Time;durP1;ratioP1;P1;durP2;ratioP2;P2;SDS_P1;SDS_P2;PMS_P1;PMS_P2;Temp;Humidity;BMP_temperature;BMP_pressure;BME280_temperature;BME280_humidity;BME280_pressure;Samples;Min_cycle;Max_cycle;Signal;HPM_P1;HPM_P2
2023/06/07 00:00:44;;;;;;;8.13;4.95;;;16.10;98.90;;;;;;5046568;28;20048;-43
2023/06/07 00:03:09;;;;;;;10.68;6.03;;;16.10;99.00;;;;;;5045888;28;20017;-42
2023/06/07 00:05:36;;;;;;;9.40;5.53;;;16.10;99.10;;;;;;5045339;28;20025;-44
2023/06/07 00:08:02;;;;;;;9.20;5.32;;;16.00;99.10;;;;;;5046703;28;20029;-42
2023/06/07 00:10:28;;;;;;;7.85;5.10;;;16.00;99.20;;;;;;5045015;28;20013;-43
2023/06/07 00:12:54;;;;;;;7.32;5.00;;;15.90;99.20;;;;;;5034909;28;20612;-44
2023/06/07 00:15:20;;;;;;;6.75;4.55;;;15.90;99.20;;;;;;5045773;28;20021;-42
2023/06/07 00:17:45;;;;;;;8.73;4.78;;;15.90;99.30;;;;;;5044855;28;20033;-43
2023/06/07 00:20:12;;;;;;;9.40;4.85;;;15.90;99.30;;;;;;5046048;28;20032;-43
2023/06/07 00:22:38;;;;;;;7.75;4.90;;;15.80;99.30;;;;;;5045439;28;20052;-43
2023/06/07 00:25:05;;;;;;;8.57;4.93;;;15.80;99.40;;;;;;5044949;28;20021;-43
2023/06/07 00:27:31;;;;;;;8.35;4.78;;;15.70;99.50;;;;;;5044722;28;20063;-42
2023/06/07 00:29:57;;;;;;;7.40;5.18;;;15.70;99.70;;;;;;5046122;28;20428;-42
2023/06/07 00:32:22;;;;;;;8.13;4.97;;;15.60;99.80;;;;;;5043764;28;20556;-44
2023/06/07 00:34:48;;;;;;;7.85;4.60;;;15.50;99.80;;;;;;5045767;28;20107;-42
2023/06/07 00:37:14;;;;;;;8.50;5.10;;;15.50;99.90;;;;;;5045568;28;20037;-42
2023/06/07 00:39:42;;;;;;;8.68;5.10;;;15.50;99.90;;;;;;5044296;28;20021;-43
2023/06/07 00:42:07;;;;;;;8.23;4.90;;;15.50;99.90;;;;;;5045276;28;20641;-43
2023/06/07 00:44:33;;;;;;;10.75;5.43;;;15.50;99.90;;;;;;5045293;28;20482;-42
2023/06/07 00:46:59;;;;;;;7.53;4.88;;;15.40;99.90;;;;;;5044782;28;20036;-43
2023/06/07 00:49:26;;;;;;;7.90;5.65;;;15.40;99.90;;;;;;5044941;28;20025;-43
2023/06/07 00:51:52;;;;;;;7.63;4.82;;;15.40;99.90;;;;;;5045695;28;20091;-42
2023/06/07 00:54:18;;;;;;;7.80;4.85;;;15.30;99.90;;;;;;5044004;28;20052;-43
2023/06/07 00:56:51;;;;;;;7.30;4.60;;;15.30;99.90;;;;;;5044421;28;20040;-43
2023/06/07 00:59:21;;;;;;;7.13;5.20;;;15.30;99.90;;;;;;5044504;28;20036;-43
2023/06/07 01:01:55;;;;;;;6.72;4.60;;;15.30;99.90;;;;;;5044576;28;20560;-43
2023/06/07 01:04:21;;;;;;;9.65;4.88;;;15.20;99.90;;;;;;5044968;28;20029;-42
2023/06/07 01:06:47;;;;;;;9.18;5.20;;;15.20;99.90;;;;;;5044165;28;20033;-43
2023/06/07 01:09:14;;;;;;;10.38;5.97;;;15.10;99.90;;;;;;5044949;28;20025;-42
2023/06/07 01:11:43;;;;;;;10.55;6.00;;;15.00;99.90;;;;;;5044355;28;20551;-43
2023/06/07 01:14:13;;;;;;;5.97;4.90;;;15.00;99.90;;;;;;5043974;28;20100;-43
2023/06/07 01:16:40;;;;;;;7.53;5.00;;;15.00;99.90;;;;;;5044629;28;20400;-43
2023/06/07 01:19:06;;;;;;;7.40;4.93;;;15.00;99.90;;;;;;5044222;28;20108;-43
2023/06/07 01:21:37;;;;;;;7.07;4.53;;;15.00;99.90;;;;;;5043650;28;20234;-43
2023/06/07 01:24:03;;;;;;;7.20;4.40;;;15.00;99.90;;;;;;5044479;28;20029;-44
2023/06/07 01:26:29;;;;;;;8.43;4.95;;;15.10;99.90;;;;;;5044100;28;20032;-43
2023/06/07 01:28:55;;;;;;;6.70;4.75;;;15.10;99.90;;;;;;5044218;28;20052;-43
2023/06/07 01:31:22;;;;;;;7.95;4.47;;;15.10;99.90;;;;;;5044243;28;20082;-44
2023/06/07 01:33:49;;;;;;;8.25;4.60;;;15.10;99.90;;;;;;5044462;28;20032;-43
2023/06/07 01:36:15;;;;;;;8.30;4.88;;;15.10;99.90;;;;;;5043993;28;20094;-43
2023/06/07 01:38:43;;;;;;;5.75;4.30;;;15.10;99.90;;;;;;5044284;28;20104;-43
2023/06/07 01:41:11;;;;;;;6.97;4.78;;;15.00;99.90;;;;;;5044353;28;20563;-42
2023/06/07 01:43:37;;;;;;;7.57;4.80;;;15.00;99.90;;;;;;5042916;28;20136;-43
2023/06/07 01:46:04;;;;;;;7.55;4.13;;;15.00;99.90;;;;;;5044249;28;20100;-42
2023/06/07 01:48:30;;;;;;;6.78;4.13;;;15.00;99.90;;;;;;5042917;28;20598;-43
2023/06/07 01:50:55;;;;;;;7.63;4.78;;;14.90;99.90;;;;;;5044026;28;20025;-42
2023/06/07 01:53:22;;;;;;;5.22;3.88;;;14.90;99.90;;;;;;5043585;28;20056;-43
2023/06/07 01:56:02;;;;;;;10.43;4.50;;;14.90;99.90;;;;;;5043304;28;20567;-42
2023/06/07 01:58:40;;;;;;;7.68;4.03;;;14.90;99.90;;;;;;5043777;28;20124;-43
2023/06/07 02:01:21;;;;;;;8.38;4.50;;;14.90;99.90;;;;;;5040683;28;20017;-42
2023/06/07 02:03:51;;;;;;;7.97;4.63;;;14.90;99.90;;;;;;5043615;28;20107;-43
2023/06/07 02:06:26;;;;;;;8.07;4.53;;;14.80;99.90;;;;;;5041163;28;20329;-42
2023/06/07 02:08:54;;;;;;;6.97;4.10;;;14.80;99.90;;;;;;5044686;28;20035;-42
2023/06/07 02:11:22;;;;;;;5.00;3.58;;;14.70;99.90;;;;;;5043057;28;20025;-43
2023/06/07 02:13:51;;;;;;;8.98;5.18;;;14.70;99.90;;;;;;5044199;28;20025;-44
2023/06/07 02:16:32;;;;;;;8.90;4.80;;;14.70;99.90;;;;;;5043675;28;20041;-43
2023/06/07 02:18:58;;;;;;;7.90;4.53;;;14.60;99.90;;;;;;5044103;28;20075;-43
2023/06/07 02:21:24;;;;;;;7.82;4.95;;;14.60;99.90;;;;;;5042980;28;20142;-42
2023/06/07 02:23:50;;;;;;;7.10;4.63;;;14.50;99.90;;;;;;5043550;28;20477;-44
2023/06/07 02:26:16;;;;;;;6.28;4.43;;;14.50;99.90;;;;;;5043630;28;20083;-43
2023/06/07 02:28:41;;;;;;;9.43;4.10;;;14.40;99.90;;;;;;5044288;28;20032;-43
2023/06/07 02:31:07;;;;;;;8.98;5.00;;;14.40;99.90;;;;;;5043446;28;20548;-43
2023/06/07 02:33:32;;;;;;;7.40;4.63;;;14.40;99.90;;;;;;5043395;28;20670;-42
2023/06/07 02:35:58;;;;;;;8.27;4.43;;;14.40;99.90;;;;;;5043649;28;20093;-43
2023/06/07 02:38:24;;;;;;;6.40;4.18;;;14.40;99.90;;;;;;5042809;28;20476;-41
2023/06/07 02:40:49;;;;;;;7.70;4.50;;;14.40;99.90;;;;;;5043920;28;20021;-43
2023/06/07 02:43:15;;;;;;;9.75;5.13;;;14.40;99.90;;;;;;5043865;28;20029;-43
2023/06/07 02:45:40;;;;;;;7.53;4.65;;;14.40;99.90;;;;;;5042275;28;20570;-48
2023/06/07 02:48:07;;;;;;;5.78;4.30;;;14.40;99.90;;;;;;5044119;28;20110;-42
2023/06/07 02:50:32;;;;;;;5.80;4.05;;;14.40;99.90;;;;;;5043655;28;20025;-43
2023/06/07 02:52:59;;;;;;;6.07;4.50;;;14.40;99.90;;;;;;5042835;28;20049;-43
2023/06/07 02:55:25;;;;;;;7.20;3.88;;;14.40;99.90;;;;;;5043241;28;20036;-43
2023/06/07 02:57:50;;;;;;;5.32;3.83;;;14.30;99.90;;;;;;5048143;28;20017;-43
2023/06/07 03:00:16;;;;;;;7.82;4.15;;;14.30;99.90;;;;;;5047304;28;20875;-42
2023/06/07 03:02:42;;;;;;;6.95;4.00;;;14.30;99.90;;;;;;5047105;28;20357;-42
2023/06/07 03:05:08;;;;;;;7.72;4.82;;;14.20;99.90;;;;;;5047633;28;20040;-43
2023/06/07 03:07:35;;;;;;;5.53;3.97;;;14.30;99.90;;;;;;5046648;28;20036;-42
2023/06/07 03:10:01;;;;;;;6.65;3.90;;;14.20;99.90;;;;;;5047636;28;20401;-42
2023/06/07 03:12:26;;;;;;;7.28;3.72;;;14.20;99.90;;;;;;5046011;28;20462;-42
2023/06/07 03:14:52;;;;;;;8.07;4.32;;;14.20;99.90;;;;;;5046735;28;20126;-42
2023/06/07 03:17:17;;;;;;;8.57;4.50;;;14.20;99.90;;;;;;5046013;28;20037;-42
2023/06/07 03:19:43;;;;;;;7.95;4.22;;;14.20;99.90;;;;;;5045939;28;20025;-44
2023/06/07 03:22:12;;;;;;;9.02;4.22;;;14.20;99.90;;;;;;5047057;28;20028;-42
2023/06/07 03:24:38;;;;;;;6.97;4.25;;;14.10;99.90;;;;;;5046499;28;20027;-43
2023/06/07 03:27:04;;;;;;;6.43;4.03;;;14.10;99.90;;;;;;5046737;28;20021;-44
2023/06/07 03:29:33;;;;;;;5.75;3.58;;;14.00;99.90;;;;;;5046395;28;20087;-42
2023/06/07 03:31:58;;;;;;;7.53;4.20;;;14.00;99.90;;;;;;5046706;28;20087;-43
2023/06/07 03:34:26;;;;;;;7.80;4.10;;;14.00;99.90;;;;;;5045762;28;20419;-42
2023/06/07 03:36:52;;;;;;;9.70;4.10;;;14.00;99.90;;;;;;5046884;28;20037;-42
2023/06/07 03:39:17;;;;;;;8.35;4.25;;;14.00;99.90;;;;;;5045850;28;20071;-42
2023/06/07 03:41:43;;;;;;;5.30;3.67;;;14.00;99.90;;;;;;5045594;28;20298;-43
2023/06/07 03:44:08;;;;;;;8.75;4.78;;;14.00;99.90;;;;;;5045647;28;20112;-43
2023/06/07 03:46:34;;;;;;;7.03;4.68;;;13.90;99.90;;;;;;5045262;28;20123;-43
2023/06/07 03:48:59;;;;;;;7.25;4.13;;;13.90;99.90;;;;;;5044669;28;20406;-42
2023/06/07 03:51:28;;;;;;;9.98;4.32;;;13.80;99.90;;;;;;5045109;28;20032;-43
2023/06/07 03:53:53;;;;;;;6.28;3.45;;;13.90;99.90;;;;;;5045577;28;20051;-43
2023/06/07 03:56:19;;;;;;;5.88;3.58;;;13.80;99.90;;;;;;5044970;28;20041;-43
2023/06/07 03:58:48;;;;;;;7.28;3.70;;;13.90;99.90;;;;;;5045091;28;20032;-42
2023/06/07 04:01:16;;;;;;;5.88;3.65;;;13.90;99.90;;;;;;5045633;28;20113;-42
2023/06/07 04:03:42;;;;;;;7.13;4.18;;;14.00;99.90;;;;;;5044116;28;20778;-42
2023/06/07 04:06:08;;;;;;;6.82;3.75;;;14.00;99.90;;;;;;5045625;28;20487;-43
2023/06/07 04:08:39;;;;;;;5.88;3.70;;;14.00;99.90;;;;;;5043313;28;20769;-43
2023/06/07 04:11:04;;;;;;;7.85;3.85;;;14.00;99.90;;;;;;5044846;28;20095;-41
2023/06/07 04:13:30;;;;;;;5.97;3.33;;;14.00;99.90;;;;;;5045153;28;20174;-43
2023/06/07 04:15:55;;;;;;;5.55;3.33;;;14.00;99.90;;;;;;5045208;28;20556;-43
2023/06/07 04:18:21;;;;;;;5.20;3.55;;;14.00;99.90;;;;;;5044463;28;20028;-43
2023/06/07 04:20:46;;;;;;;7.57;3.60;;;13.90;99.90;;;;;;5045358;28;20775;-43
2023/06/07 04:23:12;;;;;;;5.70;3.78;;;13.90;99.90;;;;;;5044550;28;20392;-43
2023/06/07 04:25:38;;;;;;;8.23;4.22;;;13.90;99.90;;;;;;5044926;28;20021;-42
2023/06/07 04:28:04;;;;;;;6.03;4.15;;;13.90;99.90;;;;;;5045478;28;20047;-43
2023/06/07 04:30:36;;;;;;;9.00;3.50;;;13.90;99.90;;;;;;5044115;28;20017;-42
2023/06/07 04:33:09;;;;;;;7.13;3.70;;;13.90;99.90;;;;;;5046014;28;20028;-42
2023/06/07 04:35:36;;;;;;;6.40;3.58;;;13.90;99.90;;;;;;5044956;28;20029;-42
2023/06/07 04:38:04;;;;;;;5.60;3.50;;;13.90;99.90;;;;;;5045088;28;20392;-42
2023/06/07 04:40:32;;;;;;;7.78;3.47;;;13.90;99.90;;;;;;5044470;28;20024;-43
2023/06/07 04:43:08;;;;;;;6.03;3.60;;;13.90;99.90;;;;;;5045198;28;20033;-43
2023/06/07 04:45:40;;;;;;;7.20;4.15;;;13.90;99.90;;;;;;5043457;28;20115;-43
2023/06/07 04:48:07;;;;;;;7.40;3.78;;;14.00;99.90;;;;;;5045299;28;20044;-42
2023/06/07 04:50:38;;;;;;;7.13;3.80;;;14.00;99.90;;;;;;5043865;28;20025;-43
2023/06/07 04:53:04;;;;;;;6.75;4.07;;;14.00;99.90;;;;;;5043899;28;20053;-42
2023/06/07 04:55:34;;;;;;;7.40;3.97;;;14.00;99.90;;;;;;5044026;28;20408;-43
2023/06/07 04:58:04;;;;;;;7.82;4.00;;;14.00;99.90;;;;;;5044859;28;20168;-43
2023/06/07 05:00:30;;;;;;;7.50;4.25;;;14.00;99.90;;;;;;5043129;28;20096;-42
2023/06/07 05:02:56;;;;;;;6.07;3.78;;;14.00;99.90;;;;;;5044541;28;20021;-43
2023/06/07 05:05:22;;;;;;;6.15;3.70;;;14.00;99.90;;;;;;5043602;28;20021;-42
2023/06/07 05:07:53;;;;;;;7.35;4.28;;;14.10;99.90;;;;;;5044886;28;20108;-43
2023/06/07 05:10:18;;;;;;;10.32;4.40;;;14.10;99.90;;;;;;5044041;28;20362;-42
2023/06/07 05:12:44;;;;;;;6.38;4.10;;;14.10;99.90;;;;;;5043349;28;20082;-43
2023/06/07 05:15:11;;;;;;;8.07;4.10;;;14.20;99.90;;;;;;5044182;28;20480;-42
2023/06/07 05:17:38;;;;;;;7.15;3.70;;;14.20;99.90;;;;;;5043742;28;20040;-42
2023/06/07 05:20:10;;;;;;;6.75;3.65;;;14.30;99.90;;;;;;5043511;28;20052;-43
2023/06/07 05:22:36;;;;;;;7.47;3.70;;;14.40;99.90;;;;;;5043724;28;20033;-43
2023/06/07 05:25:02;;;;;;;7.43;3.85;;;14.40;99.90;;;;;;5044546;28;20072;-43
2023/06/07 05:27:27;;;;;;;6.90;3.95;;;14.50;99.90;;;;;;5042910;28;20498;-43
2023/06/07 05:29:53;;;;;;;9.52;4.30;;;14.50;99.90;;;;;;5044072;28;20051;-43
2023/06/07 05:32:18;;;;;;;6.80;4.53;;;14.60;99.90;;;;;;5043365;28;20480;-43
2023/06/07 05:34:45;;;;;;;6.60;3.83;;;14.70;99.90;;;;;;5043450;28;20078;-44
2023/06/07 05:37:12;;;;;;;7.68;4.80;;;14.70;99.90;;;;;;5041372;28;20690;-44
2023/06/07 05:39:37;;;;;;;6.32;3.63;;;14.80;99.90;;;;;;5042372;28;20056;-43
2023/06/07 05:42:03;;;;;;;6.60;3.80;;;14.80;99.90;;;;;;5041962;28;20111;-43
2023/06/07 05:44:29;;;;;;;7.30;3.80;;;14.80;99.90;;;;;;5042693;28;20028;-44
2023/06/07 05:46:55;;;;;;;9.00;4.80;;;14.80;99.90;;;;;;5043155;28;20465;-43
2023/06/07 05:49:20;;;;;;;11.73;4.03;;;14.80;99.90;;;;;;5042092;28;20063;-43
2023/06/07 05:51:46;;;;;;;7.60;4.35;;;14.90;99.90;;;;;;5042457;28;20029;-44
2023/06/07 05:54:11;;;;;;;7.78;4.60;;;15.00;99.90;;;;;;5042657;28;20068;-43
2023/06/07 05:56:37;;;;;;;5.95;4.00;;;15.00;99.90;;;;;;5041489;28;20489;-43
2023/06/07 05:59:03;;;;;;;6.93;3.50;;;15.10;99.90;;;;;;5042383;28;20492;-43
2023/06/07 06:01:29;;;;;;;8.43;4.20;;;15.10;99.90;;;;;;5040874;28;20017;-43
2023/06/07 06:03:54;;;;;;;5.68;3.55;;;15.10;99.90;;;;;;5042401;28;20044;-42
2023/06/07 06:06:20;;;;;;;6.78;4.03;;;15.10;99.90;;;;;;5043080;28;20166;-42
2023/06/07 06:08:46;;;;;;;8.95;4.15;;;15.10;99.90;;;;;;5042403;28;20108;-42
2023/06/07 06:11:16;;;;;;;6.85;4.28;;;15.20;99.90;;;;;;5043254;28;20037;-43
2023/06/07 06:13:43;;;;;;;8.07;4.60;;;15.20;99.90;;;;;;5042180;28;20048;-43
2023/06/07 06:16:08;;;;;;;7.63;4.10;;;15.20;99.90;;;;;;5042741;28;20134;-43
2023/06/07 06:18:34;;;;;;;7.88;4.10;;;15.20;99.90;;;;;;5041729;28;20512;-44
2023/06/07 06:21:00;;;;;;;7.63;4.13;;;15.20;99.90;;;;;;5042763;28;20033;-44
2023/06/07 06:23:25;;;;;;;7.05;3.80;;;15.20;99.90;;;;;;5040833;28;20108;-43
2023/06/07 06:25:51;;;;;;;7.75;4.60;;;15.30;99.90;;;;;;5042694;28;20055;-43
2023/06/07 06:28:17;;;;;;;6.28;3.95;;;15.30;99.90;;;;;;5041633;28;20441;-43
2023/06/07 06:30:43;;;;;;;7.78;4.13;;;15.30;99.90;;;;;;5040766;28;20029;-42
2023/06/07 06:33:10;;;;;;;10.13;4.60;;;15.40;99.90;;;;;;5041824;28;20710;-43
2023/06/07 06:35:36;;;;;;;9.98;4.88;;;15.40;99.90;;;;;;5041534;28;20455;-43
2023/06/07 06:38:02;;;;;;;7.57;4.28;;;15.50;99.90;;;;;;5041749;28;20036;-42
2023/06/07 06:40:28;;;;;;;8.20;4.18;;;15.60;99.90;;;;;;5041102;28;20789;-43
2023/06/07 06:42:54;;;;;;;6.55;3.88;;;15.70;99.90;;;;;;5042144;28;20032;-43
2023/06/07 06:45:20;;;;;;;6.18;3.95;;;15.80;99.90;;;;;;5042513;28;20021;-43
2023/06/07 06:47:45;;;;;;;8.38;4.10;;;15.90;99.90;;;;;;5043077;28;20743;-42
2023/06/07 06:50:12;;;;;;;6.90;4.30;;;16.00;99.90;;;;;;5042925;28;20032;-42
2023/06/07 06:52:38;;;;;;;7.63;4.30;;;16.00;99.90;;;;;;5041265;28;20124;-43
2023/06/07 06:55:05;;;;;;;9.90;4.93;;;16.00;99.90;;;;;;5043301;28;20036;-43
2023/06/07 06:57:30;;;;;;;10.35;4.85;;;16.10;99.90;;;;;;5042442;28;20037;-43
2023/06/07 06:59:56;;;;;;;11.93;5.10;;;16.00;99.90;;;;;;5042022;28;20025;-43
2023/06/07 07:02:21;;;;;;;12.82;5.80;;;15.90;99.90;;;;;;5042444;28;20040;-44
2023/06/07 07:04:47;;;;;;;10.13;4.70;;;15.80;99.90;;;;;;5041696;28;20021;-44
2023/06/07 07:07:12;;;;;;;7.95;4.82;;;15.70;99.90;;;;;;5042779;28;20411;-43
2023/06/07 07:09:38;;;;;;;8.35;4.80;;;15.70;99.90;;;;;;5042002;28;20167;-43
2023/06/07 07:12:05;;;;;;;7.93;4.53;;;15.70;99.90;;;;;;5042412;28;20052;-43
2023/06/07 07:14:30;;;;;;;7.78;4.25;;;15.70;99.90;;;;;;5041963;28;20024;-43
2023/06/07 07:16:56;;;;;;;10.18;4.75;;;15.80;99.90;;;;;;5042691;28;20032;-44
2023/06/07 07:19:21;;;;;;;11.20;4.85;;;15.80;99.90;;;;;;5041710;28;20025;-43
2023/06/07 07:21:47;;;;;;;9.27;4.88;;;15.90;99.90;;;;;;5042304;28;20763;-43
2023/06/07 07:24:13;;;;;;;7.78;4.63;;;15.90;99.90;;;;;;5042719;28;20488;-42
2023/06/07 07:26:41;;;;;;;8.52;4.22;;;15.90;99.90;;;;;;5041618;28;20074;-43
2023/06/07 07:29:07;;;;;;;10.25;4.60;;;15.90;99.90;;;;;;5042872;28;20065;-43
2023/06/07 07:31:33;;;;;;;8.30;4.30;;;16.00;99.90;;;;;;5042105;28;20064;-43
2023/06/07 07:34:03;;;;;;;6.45;4.13;;;16.00;99.90;;;;;;5043037;28;20029;-43
2023/06/07 07:36:29;;;;;;;10.00;4.95;;;16.00;99.90;;;;;;5042080;28;20086;-43
2023/06/07 07:38:56;;;;;;;7.68;4.63;;;16.00;99.90;;;;;;5043728;28;20025;-44
2023/06/07 07:41:22;;;;;;;9.82;4.93;;;16.10;99.90;;;;;;5042034;28;20024;-43
2023/06/07 07:43:48;;;;;;;7.68;4.38;;;16.10;99.90;;;;;;5046455;28;20021;-42
2023/06/07 07:46:14;;;;;;;6.38;4.38;;;16.10;99.90;;;;;;5045700;28;20063;-43
2023/06/07 07:48:40;;;;;;;8.02;5.00;;;16.20;99.90;;;;;;5044798;28;20028;-43
2023/06/07 07:51:05;;;;;;;7.80;4.55;;;16.30;99.90;;;;;;5045746;28;20056;-44
2023/06/07 07:53:32;;;;;;;8.18;4.28;;;16.30;99.90;;;;;;5044550;28;20053;-44
2023/06/07 07:55:57;;;;;;;7.35;4.03;;;16.40;99.90;;;;;;5038828;28;20355;-43
2023/06/07 07:58:25;;;;;;;6.30;3.65;;;16.50;99.90;;;;;;5043548;28;20554;-42
2023/06/07 08:00:51;;;;;;;7.00;4.22;;;16.70;99.90;;;;;;5044932;28;20096;-43
2023/06/07 08:03:17;;;;;;;9.15;4.50;;;16.80;99.90;;;;;;5044488;28;20025;-43
2023/06/07 08:05:43;;;;;;;7.10;4.43;;;17.00;99.90;;;;;;5044912;28;20043;-44
2023/06/07 08:08:08;;;;;;;9.40;5.07;;;17.00;99.90;;;;;;5044900;28;20029;-43
2023/06/07 08:10:34;;;;;;;6.20;3.85;;;17.10;99.90;;;;;;5044935;28;20465;-43
2023/06/07 08:13:00;;;;;;;5.93;3.67;;;17.10;99.90;;;;;;5045679;28;20087;-44
2023/06/07 08:15:26;;;;;;;5.70;4.15;;;17.20;99.90;;;;;;5044754;28;20017;-43
2023/06/07 08:17:51;;;;;;;8.02;4.53;;;17.30;99.90;;;;;;5045404;28;20421;-43
2023/06/07 08:20:17;;;;;;;7.75;4.55;;;17.30;99.90;;;;;;5045481;28;20032;-43
2023/06/07 08:22:43;;;;;;;7.38;3.92;;;17.30;99.90;;;;;;5043885;28;20029;-43
2023/06/07 08:25:09;;;;;;;8.45;3.95;;;17.40;99.90;;;;;;5045363;28;20032;-43
2023/06/07 08:27:35;;;;;;;5.93;3.47;;;17.50;99.90;;;;;;5044224;28;20039;-43
2023/06/07 08:30:01;;;;;;;5.53;3.97;;;17.60;99.90;;;;;;5044658;28;20029;-42
2023/06/07 08:32:27;;;;;;;6.15;3.83;;;17.60;99.90;;;;;;5044543;28;20036;-44
2023/06/07 08:34:55;;;;;;;8.43;4.03;;;17.60;99.90;;;;;;5044917;28;20021;-43
2023/06/07 08:37:21;;;;;;;6.30;4.00;;;17.60;99.90;;;;;;5043969;28;20563;-43
2023/06/07 08:39:47;;;;;;;6.43;3.55;;;17.50;99.90;;;;;;5045217;28;20025;-43
2023/06/07 08:42:12;;;;;;;7.90;3.78;;;17.50;99.90;;;;;;5044138;28;20385;-44
2023/06/07 08:44:40;;;;;;;9.40;4.78;;;17.50;99.90;;;;;;5043452;28;20021;-43
2023/06/07 08:47:08;;;;;;;10.18;4.38;;;17.40;99.90;;;;;;5045229;28;20051;-44
2023/06/07 08:49:33;;;;;;;6.18;3.30;;;17.40;99.90;;;;;;5042637;28;20017;-43
2023/06/07 08:52:02;;;;;;;7.60;3.75;;;17.40;99.90;;;;;;5044272;28;20029;-43
2023/06/07 08:54:30;;;;;;;5.43;3.45;;;17.40;99.90;;;;;;5043110;28;20473;-43
2023/06/07 08:56:56;;;;;;;7.70;3.38;;;17.40;99.90;;;;;;5044960;28;20041;-44
2023/06/07 08:59:24;;;;;;;7.68;4.15;;;17.50;99.90;;;;;;5043687;28;20043;-43
2023/06/07 09:01:52;;;;;;;5.75;3.63;;;17.50;99.90;;;;;;5044738;28;20116;-43
2023/06/07 09:04:18;;;;;;;8.18;3.97;;;17.60;99.90;;;;;;5043659;28;20031;-43
2023/06/07 09:06:44;;;;;;;6.25;3.47;;;17.60;99.90;;;;;;5043966;28;20025;-43
2023/06/07 09:09:10;;;;;;;4.72;3.20;;;17.80;99.90;;;;;;5044708;28;20031;-43
2023/06/07 09:11:35;;;;;;;7.80;3.92;;;17.90;99.90;;;;;;5043326;28;20040;-43
2023/06/07 09:14:02;;;;;;;6.05;3.20;;;17.90;99.90;;;;;;5044572;28;20025;-44
2023/06/07 09:16:27;;;;;;;6.20;3.83;;;18.00;99.90;;;;;;5043520;28;20040;-43
2023/06/07 09:18:56;;;;;;;4.82;3.63;;;18.10;99.90;;;;;;5043568;28;20032;-43
2023/06/07 09:21:26;;;;;;;8.18;3.85;;;18.20;99.90;;;;;;5043215;28;20468;-44
2023/06/07 09:23:52;;;;;;;6.75;3.80;;;18.30;99.90;;;;;;5044435;28;20151;-43
2023/06/07 09:26:19;;;;;;;6.30;3.33;;;18.40;99.90;;;;;;5043164;28;20052;-43
2023/06/07 09:28:46;;;;;;;5.22;3.10;;;18.50;99.90;;;;;;5043978;28;20032;-43
2023/06/07 09:31:12;;;;;;;4.95;3.20;;;18.70;99.90;;;;;;5044047;28;20768;-43
2023/06/07 09:33:37;;;;;;;6.20;3.13;;;18.80;99.90;;;;;;5042747;28;20036;-43
2023/06/07 09:36:09;;;;;;;6.95;3.33;;;18.90;99.90;;;;;;5043940;28;20452;-43
2023/06/07 09:38:38;;;;;;;9.00;3.80;;;19.10;99.90;;;;;;5044011;28;20025;-42
2023/06/07 09:41:05;;;;;;;6.72;3.60;;;19.10;99.90;;;;;;5043008;28;20558;-43
2023/06/07 09:43:50;;;;;;;10.00;4.38;;;19.20;99.90;;;;;;5043374;28;20017;-43
2023/06/07 09:46:18;;;;;;;5.85;3.90;;;19.20;99.90;;;;;;5043931;28;20465;-43
2023/06/07 09:48:51;;;;;;;5.85;3.95;;;19.20;99.90;;;;;;5043390;28;20090;-44
2023/06/07 09:51:18;;;;;;;9.20;4.28;;;19.30;99.90;;;;;;5043913;28;20059;-43
2023/06/07 09:54:00;;;;;;;7.80;4.38;;;19.30;99.90;;;;;;5042838;28;20056;-43
2023/06/07 09:56:27;;;;;;;7.38;4.32;;;19.30;99.90;;;;;;5042875;28;20087;-44
2023/06/07 09:59:21;;;;;;;7.85;4.65;;;19.30;99.90;;;;;;5043686;28;20091;-44
2023/06/07 10:01:47;;;;;;;6.70;4.35;;;19.30;99.90;;;;;;5037392;28;20480;-44
2023/06/07 10:04:13;;;;;;;10.05;4.75;;;19.30;99.90;;;;;;5043966;28;20029;-43
2023/06/07 10:06:44;;;;;;;6.22;3.88;;;19.30;99.80;;;;;;5042820;28;20041;-42
2023/06/07 10:09:10;;;;;;;7.28;4.50;;;19.30;99.70;;;;;;5023232;28;20025;-44
2023/06/07 10:11:37;;;;;;;6.93;4.05;;;19.40;99.70;;;;;;5037428;28;20045;-43
2023/06/07 10:14:16;;;;;;;7.15;4.50;;;19.30;99.70;;;;;;5043607;28;20017;-43
2023/06/07 10:16:57;;;;;;;6.68;4.70;;;19.40;99.60;;;;;;5042278;28;20118;-44
2023/06/07 10:19:36;;;;;;;6.63;4.45;;;19.40;99.70;;;;;;5043135;28;20108;-42
2023/06/07 10:22:05;;;;;;;4.72;3.67;;;19.40;99.80;;;;;;5042772;28;20037;-43
2023/06/07 10:24:46;;;;;;;6.07;4.05;;;19.50;99.70;;;;;;5042859;28;20108;-42
2023/06/07 10:27:17;;;;;;;5.50;4.18;;;19.60;99.60;;;;;;5043415;28;20036;-43
2023/06/07 10:29:53;;;;;;;5.55;3.65;;;19.70;99.50;;;;;;5042012;28;20560;-43
2023/06/07 10:32:38;;;;;;;8.00;4.28;;;19.80;99.40;;;;;;5043204;28;20037;-42
2023/06/07 10:35:08;;;;;;;6.93;3.95;;;20.00;99.30;;;;;;5024286;28;20026;-43
2023/06/07 10:37:36;;;;;;;10.48;4.40;;;20.10;99.10;;;;;;5037532;28;20060;-43
2023/06/07 10:40:10;;;;;;;5.30;3.85;;;20.20;98.70;;;;;;5043088;28;20017;-43
2023/06/07 10:42:40;;;;;;;5.88;3.65;;;20.30;98.60;;;;;;5042338;28;20056;-43
2023/06/07 10:45:07;;;;;;;5.63;3.47;;;20.40;98.50;;;;;;5042054;28;20025;-43
2023/06/07 10:47:33;;;;;;;7.35;4.13;;;20.50;98.40;;;;;;5042236;28;20021;-43
2023/06/07 10:49:58;;;;;;;4.68;3.50;;;20.60;98.30;;;;;;5042065;28;20025;-43
2023/06/07 10:52:26;;;;;;;8.60;3.70;;;20.60;98.10;;;;;;5041731;28;20048;-43
2023/06/07 10:54:52;;;;;;;5.38;3.53;;;20.60;97.60;;;;;;5043216;28;20575;-44
2023/06/07 10:57:37;;;;;;;4.47;3.30;;;20.60;97.40;;;;;;5041504;28;20079;-43
2023/06/07 11:00:29;;;;;;;4.55;3.20;;;20.70;97.00;;;;;;5043184;28;20013;-42
2023/06/07 11:03:09;;;;;;;5.83;3.37;;;20.80;97.00;;;;;;5043073;28;20025;-43
2023/06/07 11:05:53;;;;;;;7.13;3.20;;;20.90;96.70;;;;;;5041758;28;20816;-43
2023/06/07 11:08:26;;;;;;;5.15;2.83;;;21.00;96.60;;;;;;5042959;28;20025;-44
2023/06/07 11:10:51;;;;;;;5.07;2.97;;;21.00;96.60;;;;;;5042855;28;20040;-42
2023/06/07 11:13:17;;;;;;;4.75;3.00;;;21.10;96.80;;;;;;5041420;28;20025;-43
2023/06/07 11:15:42;;;;;;;5.93;3.20;;;21.20;96.70;;;;;;5042043;28;20032;-43
2023/06/07 11:18:08;;;;;;;4.53;2.65;;;21.20;96.50;;;;;;5044343;28;20193;-44
2023/06/07 11:23:28;;;;;;;5.30;3.15;;;21.30;95.90;;;;;;5045883;28;20758;-44
2023/06/07 11:26:05;;;;;;;4.80;2.75;;;21.30;95.90;;;;;;5045599;28;20614;-43
2023/06/07 11:28:32;;;;;;;4.63;2.88;;;21.40;95.80;;;;;;5046062;28;20451;-43
2023/06/07 11:30:59;;;;;;;6.07;2.70;;;21.50;95.80;;;;;;5046853;28;20120;-43
2023/06/07 11:33:25;;;;;;;5.15;3.03;;;21.50;95.90;;;;;;5045340;28;20100;-44
2023/06/07 11:35:52;;;;;;;4.90;2.83;;;21.60;95.90;;;;;;5046543;28;20083;-44
2023/06/07 11:38:18;;;;;;;4.43;2.50;;;21.60;95.90;;;;;;5046476;28;20047;-43
2023/06/07 11:40:44;;;;;;;3.22;2.40;;;21.60;95.90;;;;;;5045651;28;20044;-44
2023/06/07 11:43:14;;;;;;;6.15;2.47;;;21.60;96.00;;;;;;5047020;28;20378;-43
2023/06/07 11:45:40;;;;;;;2.63;2.20;;;21.60;96.00;;;;;;5045689;28;20021;-43
2023/06/07 11:48:07;;;;;;;3.92;2.70;;;21.70;95.80;;;;;;5045730;28;20029;-43
2023/06/07 11:50:35;;;;;;;3.40;2.22;;;21.70;95.70;;;;;;5045631;28;20102;-44
2023/06/07 11:53:01;;;;;;;3.35;2.20;;;21.70;95.70;;;;;;5046197;28;20512;-43
2023/06/07 11:55:26;;;;;;;6.63;2.40;;;21.80;95.60;;;;;;5044863;28;20028;-44
2023/06/07 11:57:53;;;;;;;4.05;2.60;;;21.90;95.50;;;;;;5046559;28;20474;-43
2023/06/07 12:00:41;;;;;;;5.55;3.08;;;22.00;95.40;;;;;;5044781;28;20491;-43
2023/06/07 12:03:07;;;;;;;4.93;2.58;;;22.00;95.10;;;;;;5026259;28;20116;-44
2023/06/07 12:05:34;;;;;;;4.53;3.10;;;22.10;95.10;;;;;;5040589;28;20390;-43
2023/06/07 12:08:05;;;;;;;4.78;2.92;;;22.10;94.80;;;;;;5045016;28;20063;-43
2023/06/07 12:10:37;;;;;;;6.18;3.03;;;22.10;94.70;;;;;;5044567;28;20754;-42
2023/06/07 12:13:11;;;;;;;4.75;2.78;;;22.20;94.60;;;;;;5045378;28;20033;-44
2023/06/07 12:15:48;;;;;;;3.13;2.50;;;22.30;94.70;;;;;;5044449;28;20122;-44
2023/06/07 12:18:40;;;;;;;3.50;2.53;;;22.30;94.60;;;;;;5045816;28;20036;-44
2023/06/07 12:21:08;;;;;;;4.35;2.95;;;22.50;94.70;;;;;;5043962;28;20067;-44
2023/06/07 12:23:38;;;;;;;3.97;2.40;;;22.60;94.80;;;;;;5044285;28;20055;-44
2023/06/07 12:26:10;;;;;;;5.57;2.53;;;22.80;94.80;;;;;;5045563;28;20017;-44
2023/06/07 12:28:36;;;;;;;3.47;2.47;;;22.90;94.90;;;;;;5043166;28;20031;-43
2023/06/07 12:31:01;;;;;;;5.05;3.00;;;23.00;95.00;;;;;;5045614;28;20049;-43
2023/06/07 12:33:28;;;;;;;5.20;2.90;;;23.10;95.00;;;;;;5045287;28;20233;-43
2023/06/07 12:35:57;;;;;;;6.35;3.22;;;23.10;95.00;;;;;;5044258;28;20017;-43
2023/06/07 12:38:24;;;;;;;5.13;3.55;;;23.20;95.10;;;;;;5044861;28;20033;-43
2023/06/07 12:40:50;;;;;;;5.43;3.30;;;23.20;95.10;;;;;;5044654;28;20424;-43
2023/06/07 12:43:16;;;;;;;5.53;3.10;;;23.30;95.20;;;;;;5044759;28;20033;-42
2023/06/07 12:45:42;;;;;;;6.65;3.35;;;23.40;95.20;;;;;;5044524;28;20089;-42
2023/06/07 12:48:07;;;;;;;11.02;4.30;;;23.40;95.10;;;;;;5044518;28;20406;-44
2023/06/07 12:50:33;;;;;;;6.95;3.92;;;23.50;95.20;;;;;;5043466;28;20056;-43